Time;durP1;ratioP1;P1;durP2;ratioP2;P2;SDS_P1;SDS_P2;PMS_P1;PMS_P2;Temp;Humidity;BMP_temperature;BMP_pressure;BME280_temperature;BME280_humidity;BME280_pressure;Samples;Min_cycle;Max_cycle;Signal;HPM_P1;HPM_P2
2023/09/05 00:00:16;;;;;;;6.85;3.97;;;;;;;17.65;100.00;96848.03;5099690;28;20055;-68
2023/09/05 00:02:43;;;;;;;5.35;4.18;;;;;;;17.61;100.00;96855.50;5100087;28;20016;-69
2023/09/05 00:05:09;;;;;;;5.70;3.80;;;;;;;17.63;100.00;96855.34;5098948;28;20477;-68
2023/09/05 00:07:36;;;;;;;4.40;4.10;;;;;;;17.65;100.00;96837.38;5099138;28;20032;-68
2023/09/05 00:10:07;;;;;;;4.80;4.40;;;;;;;17.66;100.00;96818.59;5104611;28;20031;-68
2023/09/05 00:12:33;;;;;;;5.30;4.80;;;;;;;17.65;100.00;96811.59;5095612;28;20020;-69
2023/09/05 00:14:59;;;;;;;5.45;4.93;;;;;;;17.60;100.00;96808.56;5089860;28;20715;-69
2023/09/05 00:17:24;;;;;;;7.55;4.20;;;;;;;17.59;100.00;96822.88;5102184;28;20477;-68
2023/09/05 00:19:51;;;;;;;4.50;4.20;;;;;;;17.51;100.00;96818.34;5093026;28;20058;-69
2023/09/05 00:22:17;;;;;;;5.40;4.85;;;;;;;17.49;100.00;96814.16;5098642;28;20057;-68
2023/09/05 00:24:44;;;;;;;4.30;4.00;;;;;;;17.49;100.00;96803.50;5093049;28;20081;-68
2023/09/05 00:27:13;;;;;;;5.72;4.70;;;;;;;17.45;100.00;96806.50;5093830;28;20012;-68
2023/09/05 00:29:42;;;;;;;6.80;4.68;;;;;;;17.41;100.00;96791.00;5110181;28;20015;-68
2023/09/05 00:32:09;;;;;;;4.95;4.38;;;;;;;17.39;100.00;96795.63;5102206;28;20036;-69
2023/09/05 00:34:36;;;;;;;6.15;4.35;;;;;;;17.39;100.00;96806.28;5096794;28;20077;-69
2023/09/05 00:37:04;;;;;;;4.85;4.13;;;;;;;17.36;100.00;96795.97;5098753;28;20084;-68
2023/09/05 00:39:31;;;;;;;4.80;4.40;;;;;;;17.36;100.00;96799.47;5095124;28;20046;-68
2023/09/05 00:41:57;;;;;;;4.80;4.40;;;;;;;17.36;100.00;96786.16;5100305;28;20027;-69
2023/09/05 00:44:26;;;;;;;5.45;4.70;;;;;;;17.34;100.00;96774.81;5103097;28;20047;-68
2023/09/05 00:46:54;;;;;;;5.82;4.28;;;;;;;17.27;100.00;96777.28;5101616;28;20034;-68
2023/09/05 00:49:27;;;;;;;6.35;4.93;;;;;;;17.24;100.00;96766.97;5102446;28;20039;-69
2023/09/05 00:51:55;;;;;;;4.40;4.10;;;;;;;17.25;100.00;96754.47;5098861;28;20031;-68
2023/09/05 00:54:21;;;;;;;3.80;3.50;;;;;;;17.19;100.00;96745.28;5093042;28;20024;-68
2023/09/05 00:56:48;;;;;;;4.90;4.25;;;;;;;17.18;100.00;96727.66;5101362;28;20027;-68
2023/09/05 00:59:14;;;;;;;6.50;4.65;;;;;;;17.19;100.00;96716.03;5107085;28;20031;-69
2023/09/05 01:01:39;;;;;;;6.63;4.60;;;;;;;17.20;100.00;96711.56;5094580;28;20532;-68
2023/09/05 01:04:04;;;;;;;6.95;4.82;;;;;;;17.22;100.00;96693.59;5101198;28;20059;-69
2023/09/05 01:06:47;;;;;;;6.50;4.75;;;;;;;17.20;100.00;96684.94;5095448;28;20020;-68
2023/09/05 01:09:20;;;;;;;7.38;4.53;;;;;;;17.20;100.00;96674.31;5094996;28;20091;-68
2023/09/05 01:11:47;;;;;;;5.05;4.57;;;;;;;17.20;100.00;96666.31;5107235;28;20446;-68
2023/09/05 01:14:13;;;;;;;5.05;4.55;;;;;;;17.21;100.00;96657.34;5104015;28;20517;-68
2023/09/05 01:16:44;;;;;;;9.77;4.80;;;;;;;17.22;100.00;96662.50;5096270;28;20023;-68
2023/09/05 01:19:12;;;;;;;4.82;4.30;;;;;;;17.23;100.00;96656.16;5092142;28;20031;-68
2023/09/05 01:21:45;;;;;;;6.15;5.00;;;;;;;17.20;100.00;96632.56;5101757;27;20015;-68
2023/09/05 01:24:13;;;;;;;8.20;4.75;;;;;;;17.17;100.00;96628.41;5098273;28;20023;-68
2023/09/05 01:26:40;;;;;;;4.85;4.43;;;;;;;17.14;100.00;96634.03;5111173;27;20024;-68
2023/09/05 01:29:07;;;;;;;5.53;4.70;;;;;;;17.09;100.00;96638.19;5102898;28;20020;-69
2023/09/05 01:31:33;;;;;;;6.43;4.28;;;;;;;17.05;100.00;96640.31;5101303;28;20148;-69
2023/09/05 01:33:59;;;;;;;4.78;4.43;;;;;;;17.09;100.00;96644.31;5089799;28;20051;-69
2023/09/05 01:36:24;;;;;;;5.22;4.60;;;;;;;17.07;100.00;96632.19;5115539;28;20100;-69
2023/09/05 01:38:50;;;;;;;4.80;4.40;;;;;;;17.09;100.00;96622.22;5104133;28;20063;-69
2023/09/05 01:41:15;;;;;;;4.78;4.40;;;;;;;17.08;100.00;96605.41;5108806;27;20038;-68
2023/09/05 01:43:40;;;;;;;5.55;4.18;;;;;;;17.10;100.00;96590.09;5097993;28;20089;-69
2023/09/05 01:46:06;;;;;;;8.07;4.95;;;;;;;17.11;100.00;96575.81;5098799;28;20035;-69
2023/09/05 01:48:31;;;;;;;6.53;4.50;;;;;;;17.09;100.00;96559.19;5098946;28;20020;-68
2023/09/05 01:50:57;;;;;;;5.05;4.65;;;;;;;17.06;100.00;96556.84;5098938;28;20031;-69
2023/09/05 01:53:24;;;;;;;6.35;4.78;;;;;;;17.02;100.00;96551.03;5101505;28;20020;-69
2023/09/05 01:55:49;;;;;;;6.93;4.68;;;;;;;17.03;100.00;96544.72;5101628;28;20035;-69
2023/09/05 01:58:14;;;;;;;5.53;5.03;;;;;;;16.95;100.00;96565.09;5105547;28;20488;-69
2023/09/05 02:00:40;;;;;;;5.70;4.68;;;;;;;16.87;100.00;96558.75;5105770;28;20023;-69
2023/09/05 02:03:06;;;;;;;5.15;4.65;;;;;;;16.88;100.00;96555.09;5104676;28;20039;-68
2023/09/05 02:05:31;;;;;;;4.70;4.28;;;;;;;16.93;100.00;96533.34;5096354;28;20598;-69
2023/09/05 02:07:57;;;;;;;4.97;4.45;;;;;;;16.96;100.00;96524.22;5104895;28;20123;-70
2023/09/05 02:10:22;;;;;;;7.32;4.57;;;;;;;16.95;100.00;96501.28;5107841;28;20099;-69
2023/09/05 02:12:49;;;;;;;7.40;4.75;;;;;;;16.93;100.00;96488.13;5103626;28;20027;-69
2023/09/05 02:15:14;;;;;;;4.70;4.32;;;;;;;16.95;100.00;96487.97;5108576;28;20023;-68
2023/09/05 02:17:40;;;;;;;7.55;4.65;;;;;;;16.94;100.00;96499.63;5104805;27;20019;-68
2023/09/05 02:20:06;;;;;;;5.65;5.05;;;;;;;16.89;100.00;96506.22;5111679;28;20070;-69
2023/09/05 02:22:31;;;;;;;6.88;5.07;;;;;;;16.87;100.00;96505.56;5110963;28;20019;-69
2023/09/05 02:24:59;;;;;;;9.80;5.32;;;;;;;16.81;100.00;96531.97;5100958;28;20023;-69
2023/09/05 02:27:25;;;;;;;8.15;4.70;;;;;;;16.78;100.00;96501.22;5100713;27;20119;-68
2023/09/05 02:29:56;;;;;;;5.97;4.53;;;;;;;16.76;100.00;96480.09;5103697;28;20081;-69
2023/09/05 02:32:22;;;;;;;11.25;7.32;;;;;;;16.74;100.00;96444.88;5097267;28;20118;-69
2023/09/05 02:34:52;;;;;;;9.38;8.35;;;;;;;16.73;100.00;96424.59;5098023;28;20024;-69
2023/09/05 02:37:17;;;;;;;7.63;5.30;;;;;;;16.75;100.00;96419.13;5105522;27;20024;-69
2023/09/05 02:39:43;;;;;;;5.57;5.00;;;;;;;16.77;100.00;96409.16;5098243;28;20069;-68
2023/09/05 02:42:08;;;;;;;6.78;4.45;;;;;;;16.75;100.00;96395.19;5098982;27;20512;-68
2023/09/05 02:44:34;;;;;;;9.20;5.15;;;;;;;16.75;100.00;96379.25;5108996;28;20023;-68
2023/09/05 02:46:59;;;;;;;11.40;5.20;;;;;;;16.72;100.00;96384.91;5100176;28;20023;-69
2023/09/05 02:49:24;;;;;;;7.82;5.25;;;;;;;16.70;100.00;96382.38;5095813;28;20024;-69
2023/09/05 02:51:50;;;;;;;11.25;5.05;;;;;;;16.68;100.00;96389.69;5108373;28;20042;-68
2023/09/05 02:54:15;;;;;;;7.35;4.82;;;;;;;16.66;100.00;96377.56;5089039;28;20024;-69
2023/09/05 02:56:41;;;;;;;7.47;5.07;;;;;;;16.61;100.00;96362.13;5103823;28;20059;-69
2023/09/05 02:59:06;;;;;;;5.93;4.90;;;;;;;16.57;100.00;96366.91;5096896;28;20028;-69
2023/09/05 03:01:33;;;;;;;5.38;4.35;;;;;;;16.53;100.00;96370.91;5098837;28;20016;-69
2023/09/05 03:03:58;;;;;;;5.70;4.90;;;;;;;16.46;100.00;96364.56;5098589;28;20016;-69
2023/09/05 03:06:23;;;;;;;5.45;5.00;;;;;;;16.42;100.00;96361.41;5102524;28;20023;-69
2023/09/05 03:08:49;;;;;;;5.32;4.85;;;;;;;16.41;100.00;96365.06;5080780;28;20028;-68
2023/09/05 03:11:18;;;;;;;9.68;4.90;;;;;;;16.37;100.00;96368.19;5108998;28;20020;-68
2023/09/05 03:13:45;;;;;;;6.88;6.28;;;;;;;16.40;100.00;96370.53;5096214;28;20031;-68
2023/09/05 03:16:12;;;;;;;6.55;5.90;;;;;;;16.40;100.00;96357.22;5095283;28;20047;-69
2023/09/05 03:18:38;;;;;;;7.50;5.65;;;;;;;16.39;100.00;96347.59;5098666;28;20073;-68
2023/09/05 03:21:04;;;;;;;7.32;5.28;;;;;;;16.33;100.00;96352.56;5104017;27;20027;-68
2023/09/05 03:23:30;;;;;;;5.50;4.68;;;;;;;16.31;100.00;96367.84;5103956;27;20177;-68
2023/09/05 03:25:56;;;;;;;6.55;5.45;;;;;;;16.33;100.00;96365.00;5098585;27;20103;-68
2023/09/05 03:28:22;;;;;;;7.07;4.90;;;;;;;16.30;100.00;96374.16;5096764;28;20085;-68
2023/09/05 03:30:47;;;;;;;5.70;5.10;;;;;;;16.30;100.00;96366.19;5100789;28;20050;-68
2023/09/05 03:33:13;;;;;;;6.40;5.43;;;;;;;16.30;100.00;96352.91;5107595;28;20020;-68
2023/09/05 03:35:42;;;;;;;5.53;4.82;;;;;;;16.31;100.00;96346.59;5101176;28;20060;-69
2023/09/05 03:38:07;;;;;;;5.97;4.90;;;;;;;16.30;100.00;96350.25;5100472;28;20020;-68
2023/09/05 03:40:33;;;;;;;6.15;4.97;;;;;;;16.27;100.00;96361.19;5109827;28;20053;-69
2023/09/05 03:42:59;;;;;;;6.15;5.43;;;;;;;16.29;100.00;96358.38;5103340;27;20020;-68
2023/09/05 03:45:26;;;;;;;5.80;5.20;;;;;;;16.29;100.00;96363.69;5095727;28;20031;-68
2023/09/05 03:47:51;;;;;;;5.80;5.05;;;;;;;16.21;100.00;96359.16;5108857;28;20121;-68
2023/09/05 03:50:17;;;;;;;8.02;5.22;;;;;;;16.16;100.00;96366.78;5094576;28;20847;-68
2023/09/05 03:52:43;;;;;;;5.47;4.97;;;;;;;16.16;100.00;96356.16;5095785;28;20134;-69
2023/09/05 03:55:09;;;;;;;5.53;5.03;;;;;;;16.18;100.00;96359.50;5101745;28;20028;-68
2023/09/05 03:57:34;;;;;;;5.95;5.20;;;;;;;16.17;100.00;96344.56;5104649;28;20437;-68
2023/09/05 04:00:00;;;;;;;5.38;4.85;;;;;;;16.15;100.00;96325.28;5096249;28;20404;-68
2023/09/05 04:02:25;;;;;;;5.63;5.00;;;;;;;16.15;100.00;96320.81;5092883;28;20073;-69
2023/09/05 04:04:55;;;;;;;8.93;4.53;;;;;;;16.11;100.00;96308.84;5102472;28;20020;-68
2023/09/05 04:07:21;;;;;;;5.57;5.07;;;;;;;16.08;100.00;96318.97;5098184;28;20110;-69
2023/09/05 04:09:47;;;;;;;6.72;4.90;;;;;;;16.06;100.00;96323.63;5094824;28;20044;-68
2023/09/05 04:12:13;;;;;;;5.82;5.32;;;;;;;16.03;100.00;96327.41;5095484;28;20028;-68
2023/09/05 04:14:38;;;;;;;5.45;5.10;;;;;;;16.04;100.00;96327.25;5096396;28;20023;-68
2023/09/05 04:17:04;;;;;;;7.20;5.35;;;;;;;16.06;100.00;96316.47;5107141;28;20418;-69
2023/09/05 04:19:29;;;;;;;8.07;7.32;;;;;;;16.06;100.00;96307.69;5113654;28;20031;-69
2023/09/05 04:21:54;;;;;;;11.43;10.38;;;;;;;16.04;100.00;96299.84;5099181;28;20036;-69
2023/09/05 04:24:20;;;;;;;6.55;5.88;;;;;;;16.03;100.00;96303.50;5109829;28;20046;-69
2023/09/05 04:26:45;;;;;;;7.15;5.45;;;;;;;16.06;100.00;96294.41;5101956;27;20040;-69
2023/09/05 04:29:11;;;;;;;7.10;5.72;;;;;;;16.07;100.00;96302.19;5097367;28;20115;-70
2023/09/05 04:31:36;;;;;;;8.05;5.40;;;;;;;16.01;100.00;96314.28;5102434;28;20044;-69
2023/09/05 04:34:02;;;;;;;6.55;5.95;;;;;;;15.99;100.00;96329.53;5093973;28;20028;-69
2023/09/05 04:36:27;;;;;;;5.68;5.28;;;;;;;15.94;100.00;96456.66;5107536;28;20469;-69
2023/09/05 04:38:53;;;;;;;5.90;5.28;;;;;;;15.93;100.00;96496.66;5094940;28;20020;-68
2023/09/05 04:41:20;;;;;;;6.47;5.32;;;;;;;15.96;100.00;96506.97;5097967;28;20038;-68
2023/09/05 04:43:45;;;;;;;5.68;5.30;;;;;;;15.97;100.00;96511.28;5103153;28;20073;-68
2023/09/05 04:46:12;;;;;;;17.73;16.02;;;;;;;15.96;100.00;96497.16;5107440;28;20028;-69
2023/09/05 04:48:37;;;;;;;9.25;8.43;;;;;;;15.95;100.00;96484.88;5094448;28;20031;-69
2023/09/05 04:51:03;;;;;;;8.27;5.43;;;;;;;15.91;100.00;96478.22;5080227;28;20020;-69
2023/09/05 04:53:32;;;;;;;5.80;5.40;;;;;;;15.87;100.00;96477.66;5105386;28;20126;-68
2023/09/05 04:56:00;;;;;;;8.35;5.13;;;;;;;15.87;100.00;96477.66;5098830;28;20614;-68
2023/09/05 04:58:27;;;;;;;7.40;5.57;;;;;;;15.84;100.00;96477.97;5101679;28;20124;-69
2023/09/05 05:00:56;;;;;;;6.50;5.88;;;;;;;15.85;100.00;96476.16;5093254;28;20032;-69
2023/09/05 05:03:23;;;;;;;9.40;5.70;;;;;;;15.81;100.00;96480.13;5100999;28;20531;-67
2023/09/05 05:05:49;;;;;;;8.93;5.40;;;;;;;15.69;100.00;96487.47;5093634;28;20052;-69
2023/09/05 05:08:15;;;;;;;6.40;5.20;;;;;;;15.65;100.00;96516.16;5093148;28;20597;-69
2023/09/05 05:10:40;;;;;;;6.38;5.53;;;;;;;15.65;100.00;96526.78;5102020;28;20059;-69
2023/09/05 05:13:05;;;;;;;8.50;5.65;;;;;;;15.66;100.00;96531.09;5104128;28;20024;-70
2023/09/05 05:15:31;;;;;;;9.05;5.68;;;;;;;15.67;100.00;96539.88;5093608;28;20035;-69
2023/09/05 05:17:56;;;;;;;5.65;4.80;;;;;;;15.63;100.00;96551.78;5096729;28;20803;-69
2023/09/05 05:20:22;;;;;;;5.93;5.32;;;;;;;15.68;100.00;96558.31;5099175;28;20035;-69
2023/09/05 05:22:47;;;;;;;6.45;5.80;;;;;;;15.67;100.00;96542.53;5104135;28;20028;-70
2023/09/05 05:25:13;;;;;;;6.28;5.30;;;;;;;15.68;100.00;96520.31;5098478;28;20030;-70
2023/09/05 05:27:38;;;;;;;7.35;5.20;;;;;;;15.63;100.00;96502.22;5102314;28;20033;-69
2023/09/05 05:30:05;;;;;;;14.80;4.82;;;;;;;15.57;100.00;96508.97;5093528;28;20173;-69
2023/09/05 05:32:31;;;;;;;6.85;5.05;;;;;;;15.60;100.00;96510.50;5096658;28;20043;-69
2023/09/05 05:34:56;;;;;;;9.68;5.07;;;;;;;15.58;100.00;96500.03;5106787;28;20028;-70
2023/09/05 05:37:21;;;;;;;9.45;5.68;;;;;;;15.59;100.00;96499.03;5093599;28;20046;-68
2023/09/05 05:39:47;;;;;;;6.18;5.50;;;;;;;15.63;100.00;96491.59;5096677;28;20432;-68
2023/09/05 05:42:12;;;;;;;11.02;5.32;;;;;;;15.65;100.00;96489.63;5111399;28;20449;-68
2023/09/05 05:44:39;;;;;;;10.98;5.28;;;;;;;15.71;100.00;96466.94;5101817;28;20653;-71
2023/09/05 05:47:05;;;;;;;7.50;5.57;;;;;;;15.76;100.00;96456.69;5098090;28;20165;-69
2023/09/05 05:49:30;;;;;;;6.22;5.63;;;;;;;15.83;100.00;96417.06;5093123;28;20043;-68
2023/09/05 05:51:59;;;;;;;6.18;5.28;;;;;;;15.86;100.00;96379.59;5100891;28;20031;-70
2023/09/05 05:54:25;;;;;;;6.72;5.15;;;;;;;15.86;100.00;96342.41;5098855;28;20034;-67
2023/09/05 05:56:55;;;;;;;6.90;4.97;;;;;;;15.87;100.00;96314.88;5099988;28;20028;-68
2023/09/05 05:59:21;;;;;;;6.13;4.97;;;;;;;15.90;100.00;96288.03;5097771;28;20035;-70
2023/09/05 06:01:47;;;;;;;6.65;4.85;;;;;;;15.99;100.00;96273.78;5094200;28;20032;-70
2023/09/05 06:04:15;;;;;;;9.32;5.35;;;;;;;16.04;100.00;96255.56;5092998;28;20028;-68
2023/09/05 06:06:42;;;;;;;6.10;5.03;;;;;;;16.09;100.00;96239.13;5102938;28;20039;-68
2023/09/05 06:09:08;;;;;;;9.15;5.10;;;;;;;16.08;100.00;96248.06;5100203;28;20019;-68
2023/09/05 06:11:34;;;;;;;7.13;4.97;;;;;;;16.07;100.00;96262.34;5106292;28;20102;-68
2023/09/05 06:13:59;;;;;;;8.38;4.72;;;;;;;16.08;100.00;96263.19;5100456;28;20107;-68
2023/09/05 06:16:25;;;;;;;5.25;4.25;;;;;;;16.06;100.00;96263.34;5103281;27;20097;-67
2023/09/05 06:18:50;;;;;;;6.53;4.80;;;;;;;16.08;100.00;96268.50;5085374;28;20032;-68
2023/09/05 06:21:16;;;;;;;5.60;5.15;;;;;;;16.11;100.00;96268.19;5099291;28;20042;-67
2023/09/05 06:23:41;;;;;;;5.47;4.93;;;;;;;16.14;100.00;96273.16;5105358;28;20039;-68
2023/09/05 06:26:07;;;;;;;8.15;5.40;;;;;;;16.20;100.00;96269.03;5105175;27;20019;-68
2023/09/05 06:28:32;;;;;;;5.40;4.85;;;;;;;16.22;100.00;96264.38;5101373;28;20027;-67
2023/09/05 06:30:58;;;;;;;5.68;5.15;;;;;;;16.25;100.00;96272.88;5093571;28;20047;-68
2023/09/05 06:33:26;;;;;;;6.95;5.38;;;;;;;16.29;100.00;96287.47;5098567;28;20300;-68
2023/09/05 06:35:51;;;;;;;5.22;4.60;;;;;;;16.35;100.00;96298.44;5103918;28;20028;-68
2023/09/05 06:38:17;;;;;;;5.10;4.65;;;;;;;16.36;100.00;96305.41;5097174;28;20020;-68
2023/09/05 06:40:42;;;;;;;4.78;4.40;;;;;;;16.43;100.00;96311.72;5095014;28;20542;-68
2023/09/05 06:43:09;;;;;;;6.65;4.45;;;;;;;16.47;100.00;96318.41;5103776;27;20024;-68
2023/09/05 06:45:35;;;;;;;6.22;4.82;;;;;;;16.54;100.00;96316.75;5093992;28;20024;-68
2023/09/05 06:48:00;;;;;;;4.90;4.18;;;;;;;16.85;100.00;96309.97;5096225;28;20020;-67
2023/09/05 06:50:26;;;;;;;4.63;4.32;;;;;;;17.34;100.00;96269.16;5103157;28;20035;-68
2023/09/05 06:52:52;;;;;;;5.78;4.82;;;;;;;17.84;100.00;96234.41;5097471;28;20036;-68
2023/09/05 06:55:17;;;;;;;9.85;4.45;;;;;;;18.29;100.00;96206.19;5107195;28;20028;-68
2023/09/05 06:57:43;;;;;;;4.78;4.32;;;;;;;18.77;100.00;96229.13;5114130;28;20035;-67
2023/09/05 07:00:10;;;;;;;4.38;3.97;;;;;;;19.14;100.00;96259.47;5102769;28;20044;-68
2023/09/05 07:02:35;;;;;;;4.50;4.10;;;;;;;19.54;100.00;96295.75;5097657;28;20099;-67
2023/09/05 07:05:00;;;;;;;7.85;4.70;;;;;;;19.92;100.00;96385.72;5095563;28;20059;-69
2023/09/05 07:07:26;;;;;;;5.18;4.15;;;;;;;20.29;100.00;96427.56;5102027;28;20035;-69
2023/09/05 07:09:51;;;;;;;4.57;4.15;;;;;;;20.80;100.00;96441.97;5095743;28;20028;-69
2023/09/05 07:12:16;;;;;;;4.90;4.40;;;;;;;21.32;100.00;96456.13;5107644;28;20035;-69
2023/09/05 07:14:43;;;;;;;5.50;3.95;;;;;;;21.77;100.00;96452.41;5105169;28;20501;-69
2023/09/05 07:17:09;;;;;;;7.15;4.45;;;;;;;22.05;100.00;96459.59;5107481;28;20019;-68
2023/09/05 07:19:35;;;;;;;6.15;4.15;;;;;;;22.53;100.00;96434.75;5114114;27;20034;-68
2023/09/05 07:22:00;;;;;;;4.70;4.15;;;;;;;22.85;100.00;96424.31;5101786;27;20016;-69
2023/09/05 07:24:26;;;;;;;6.93;4.35;;;;;;;23.02;100.00;96413.22;5095358;28;20034;-69
2023/09/05 07:26:51;;;;;;;6.03;4.03;;;;;;;23.08;100.00;96395.47;5102181;27;20059;-69
2023/09/05 07:29:16;;;;;;;6.28;3.97;;;;;;;23.22;100.00;96404.38;5093983;28;20105;-71
2023/09/05 07:31:43;;;;;;;3.95;3.53;;;;;;;23.45;100.00;96404.81;5100495;28;20052;-71
2023/09/05 07:34:09;;;;;;;4.43;3.80;;;;;;;23.50;100.00;96395.31;5098250;28;20667;-71
2023/09/05 07:36:36;;;;;;;3.78;3.35;;;;;;;23.49;100.00;96393.66;5100276;28;20392;-70
2023/09/05 07:39:03;;;;;;;3.80;3.50;;;;;;;23.29;100.00;96394.47;5099156;28;20500;-71
2023/09/05 07:41:30;;;;;;;4.45;3.92;;;;;;;23.21;100.00;96418.81;5094071;28;20503;-72
2023/09/05 07:43:55;;;;;;;6.40;3.63;;;;;;;23.23;100.00;96422.13;5105028;28;20137;-71
2023/09/05 07:46:21;;;;;;;4.28;3.70;;;;;;;23.25;100.00;96387.84;5097449;28;20642;-69
2023/09/05 07:48:47;;;;;;;3.85;3.55;;;;;;;23.11;100.00;96400.44;5093307;28;20047;-69
2023/09/05 07:51:13;;;;;;;4.22;3.80;;;;;;;23.16;100.00;96406.00;5096198;28;20488;-69
2023/09/05 07:53:39;;;;;;;7.05;3.78;;;;;;;23.07;100.00;96448.34;5097902;28;20932;-70
2023/09/05 07:56:05;;;;;;;4.30;3.50;;;;;;;23.17;100.00;96488.22;5100807;28;20027;-69
2023/09/05 07:58:30;;;;;;;4.15;3.72;;;;;;;23.06;100.00;96461.97;5100584;28;20500;-71
2023/09/05 08:00:56;;;;;;;4.07;3.40;;;;;;;23.03;100.00;96445.25;5100775;28;20043;-70
2023/09/05 08:03:28;;;;;;;4.00;3.70;;;;;;;23.15;100.00;96458.06;5093270;28;20027;-70
2023/09/05 08:05:54;;;;;;;3.95;3.30;;;;;;;23.35;100.00;96438.50;5095700;28;20051;-70
2023/09/05 08:08:22;;;;;;;4.05;3.75;;;;;;;23.75;100.00;96396.31;5102944;28;20031;-70
2023/09/05 08:10:48;;;;;;;4.20;3.30;;;;;;;24.11;100.00;96361.97;5104875;28;20111;-70
2023/09/05 08:13:16;;;;;;;3.92;3.58;;;;;;;24.44;100.00;96335.97;5099401;28;20080;-70
2023/09/05 08:15:43;;;;;;;11.20;3.88;;;;;;;24.68;100.00;96303.97;5109735;28;20019;-70
2023/09/05 08:18:10;;;;;;;5.63;3.55;;;;;;;24.65;100.00;96301.69;5113815;27;20030;-71
2023/09/05 08:20:36;;;;;;;3.78;3.47;;;;;;;24.41;100.00;96317.56;5094116;28;20107;-70
2023/09/05 08:23:02;;;;;;;4.40;3.60;;;;;;;24.34;100.00;96324.84;5093878;28;20059;-70
2023/09/05 08:25:27;;;;;;;4.03;3.45;;;;;;;24.11;100.00;96293.91;5094397;28;20390;-70
2023/09/05 08:27:56;;;;;;;4.88;3.60;;;;;;;24.06;100.00;96299.09;5106420;27;20038;-70
2023/09/05 08:30:24;;;;;;;3.80;3.50;;;;;;;24.39;100.00;96290.88;5093788;28;20040;-70
2023/09/05 08:32:50;;;;;;;4.63;4.13;;;;;;;24.73;100.00;96280.72;5106646;28;20051;-70
2023/09/05 08:35:16;;;;;;;4.15;3.70;;;;;;;24.95;100.00;96271.50;5093451;28;20031;-70
2023/09/05 08:37:41;;;;;;;4.20;3.63;;;;;;;25.01;100.00;96243.69;5093990;28;20028;-70
2023/09/05 08:40:08;;;;;;;3.88;3.47;;;;;;;24.95;100.00;96226.53;5100023;28;20019;-70
2023/09/05 08:42:37;;;;;;;3.95;3.45;;;;;;;24.85;100.00;96218.13;5103098;28;20020;-70
2023/09/05 08:45:03;;;;;;;3.45;3.15;;;;;;;24.69;100.00;96232.94;5100057;28;20535;-70
2023/09/05 08:47:30;;;;;;;3.65;3.35;;;;;;;24.67;100.00;96217.00;5094081;28;20023;-70
2023/09/05 08:49:55;;;;;;;3.58;3.30;;;;;;;24.82;100.00;96183.59;5099779;28;20136;-70
2023/09/05 08:52:24;;;;;;;3.33;3.13;;;;;;;24.99;100.00;96189.22;5106822;28;20035;-70
2023/09/05 08:54:50;;;;;;;3.50;3.20;;;;;;;25.08;100.00;96174.41;5100387;28;20092;-70
2023/09/05 08:57:18;;;;;;;3.00;2.80;;;;;;;25.11;100.00;96160.53;5098975;28;20449;-70
2023/09/05 08:59:43;;;;;;;2.92;2.72;;;;;;;25.23;100.00;96092.41;5102709;28;20601;-70
2023/09/05 09:02:17;;;;;;;4.47;3.00;;;;;;;25.10;100.00;96082.63;5098216;28;20055;-70
2023/09/05 09:04:58;;;;;;;4.03;3.25;;;;;;;24.82;100.00;96095.53;5096120;28;20027;-70
2023/09/05 09:07:27;;;;;;;3.42;3.10;;;;;;;24.78;100.00;96077.38;5094993;28;20032;-70
2023/09/05 09:09:54;;;;;;;3.78;2.95;;;;;;;24.45;100.00;96066.69;5110396;28;20098;-70
2023/09/05 09:12:33;;;;;;;3.67;3.00;;;;;;;24.48;100.00;96097.72;5095712;28;20032;-70
2023/09/05 09:15:12;;;;;;;3.45;3.17;;;;;;;24.50;100.00;96082.16;5099577;28;20031;-70
2023/09/05 09:17:41;;;;;;;3.45;3.15;;;;;;;24.59;100.00;96077.34;5105080;28;20118;-71
2023/09/05 09:20:12;;;;;;;3.50;3.20;;;;;;;24.64;100.00;96084.72;5102611;28;20081;-71
2023/09/05 09:22:39;;;;;;;3.38;3.08;;;;;;;24.51;100.00;96051.53;5104925;28;20027;-70
2023/09/05 09:25:11;;;;;;;4.38;3.38;;;;;;;24.60;100.00;96055.56;5109730;27;20064;-70
2023/09/05 09:27:39;;;;;;;4.20;3.10;;;;;;;24.34;100.00;96080.03;5118435;28;20026;-70
2023/09/05 09:30:08;;;;;;;4.43;3.35;;;;;;;24.46;100.00;96107.88;5102783;28;20392;-70
2023/09/05 09:32:34;;;;;;;3.75;3.45;;;;;;;24.52;100.00;96114.22;5100810;28;20040;-71
2023/09/05 09:35:00;;;;;;;3.28;3.08;;;;;;;24.54;100.00;96110.28;5118890;28;20032;-70
2023/09/05 09:37:26;;;;;;;3.22;3.00;;;;;;;24.50;100.00;96127.06;5121274;28;20023;-71
2023/09/05 09:39:58;;;;;;;3.40;3.20;;;;;;;24.53;100.00;96115.88;5108259;27;20046;-71
2023/09/05 09:42:25;;;;;;;3.50;3.20;;;;;;;24.43;100.00;96129.84;5110266;27;20026;-71
2023/09/05 09:44:50;;;;;;;5.95;3.10;;;;;;;24.53;100.00;96154.38;5116826;27;20023;-71
2023/09/05 09:47:17;;;;;;;3.40;3.00;;;;;;;24.89;100.00;96093.63;5115671;27;20032;-69
2023/09/05 09:49:45;;;;;;;3.40;3.10;;;;;;;24.84;100.00;96052.25;5110947;27;20037;-70
2023/09/05 09:52:14;;;;;;;3.33;3.00;;;;;;;25.02;100.00;96063.03;5107478;27;20108;-70
2023/09/05 09:54:43;;;;;;;3.67;3.00;;;;;;;24.95;100.00;96048.81;5122197;27;20019;-70
2023/09/05 09:57:12;;;;;;;4.50;3.28;;;;;;;24.93;100.00;96067.06;5105959;27;20027;-70
2023/09/05 09:59:45;;;;;;;3.67;3.25;;;;;;;25.02;100.00;96051.44;5109789;27;20023;-71
2023/09/05 10:02:14;;;;;;;4.93;3.22;;;;;;;25.19;100.00;96065.09;5109288;27;20032;-70
2023/09/05 10:04:41;;;;;;;3.33;3.03;;;;;;;25.36;100.00;96019.53;5114541;27;20033;-70
2023/09/05 10:07:07;;;;;;;4.68;3.00;;;;;;;25.26;100.00;95989.59;5112469;27;20031;-70
2023/09/05 10:09:40;;;;;;;3.42;3.13;;;;;;;25.34;100.00;95993.84;5114637;27;20024;-70
2023/09/05 10:12:07;;;;;;;2.97;2.78;;;;;;;25.29;100.00;96008.00;5103376;27;20082;-70
2023/09/05 10:14:35;;;;;;;6.93;3.65;;;;;;;25.53;100.00;96003.56;5121041;27;20539;-70
2023/09/05 10:17:02;;;;;;;11.95;3.50;;;;;;;25.70;100.00;95995.63;5124783;27;20066;-70
2023/09/05 10:19:32;;;;;;;3.38;3.17;;;;;;;25.67;100.00;95968.31;5114066;27;20088;-70
2023/09/05 10:21:58;;;;;;;4.65;3.42;;;;;;;25.59;100.00;95982.94;5122280;27;20037;-70
2023/09/05 10:24:31;;;;;;;3.58;3.30;;;;;;;25.67;100.00;95962.94;5117039;27;20023;-70
2023/09/05 10:26:57;;;;;;;7.95;3.42;;;;;;;25.84;100.00;95944.19;5122519;27;20474;-71
2023/09/05 10:29:43;;;;;;;4.85;3.55;;;;;;;25.92;100.00;95941.16;5106615;27;20036;-70
2023/09/05 10:32:09;;;;;;;4.43;3.42;;;;;;;26.13;100.00;95920.88;5111607;27;20073;-70
2023/09/05 10:34:47;;;;;;;3.33;3.10;;;;;;;26.27;100.00;95920.63;5117844;27;20026;-70
2023/09/05 10:37:27;;;;;;;3.65;3.15;;;;;;;26.40;100.00;95916.88;5116864;27;20031;-69
2023/09/05 10:40:01;;;;;;;3.67;3.30;;;;;;;26.55;100.00;95906.41;5111911;27;20035;-70
2023/09/05 10:42:29;;;;;;;3.53;3.25;;;;;;;26.56;100.00;95910.75;5123689;27;20606;-70
2023/09/05 10:44:55;;;;;;;3.55;3.35;;;;;;;26.59;100.00;95904.84;5105359;28;20073;-70
2023/09/05 10:47:29;;;;;;;6.88;3.33;;;;;;;26.51;100.00;95902.53;5115456;27;20119;-69
2023/09/05 10:50:06;;;;;;;3.63;2.90;;;;;;;26.73;100.00;95913.50;5104640;27;20024;-70
2023/09/05 10:52:32;;;;;;;5.22;3.10;;;;;;;26.96;100.00;95916.41;5105306;27;20062;-70
2023/09/05 10:55:18;;;;;;;6.15;3.15;;;;;;;27.28;100.00;95888.88;5112036;27;20063;-70
2023/09/05 10:57:48;;;;;;;4.43;3.00;;;;;;;27.47;100.00;95884.06;5107563;27;20050;-70
2023/09/05 11:00:17;;;;;;;6.10;3.17;;;;;;;27.72;100.00;95885.56;5101057;28;20046;-70
2023/09/05 11:02:44;;;;;;;3.63;3.40;;;;;;;27.77;100.00;95888.34;5110343;27;20038;-70
2023/09/05 11:05:18;;;;;;;4.95;3.75;;;;;;;27.93;100.00;95885.88;5100170;27;20027;-70
2023/09/05 11:07:48;;;;;;;5.10;4.25;;;;;;;27.82;100.00;95890.31;5106496;27;20113;-71
2023/09/05 11:10:32;;;;;;;4.20;3.55;;;;;;;28.23;100.00;95893.66;5123278;27;20466;-69
2023/09/05 11:13:08;;;;;;;5.78;3.20;;;;;;;28.31;100.00;95882.38;5108814;27;20119;-70
2023/09/05 11:15:36;;;;;;;4.07;2.72;;;;;;;28.33;100.00;95878.59;5109563;27;20552;-70
2023/09/05 11:18:06;;;;;;;6.70;3.40;;;;;;;28.67;100.00;95863.03;5112164;27;20551;-70
2023/09/05 11:20:42;;;;;;;3.70;3.40;;;;;;;28.73;100.00;95850.38;5112592;27;20034;-70
2023/09/05 11:23:20;;;;;;;5.43;3.03;;;;;;;28.75;100.00;95834.69;5113776;27;20080;-70